Time;durP1;ratioP1;P1;durP2;ratioP2;P2;SDS_P1;SDS_P2;PMS_P1;PMS_P2;Temp;Humidity;BMP_temperature;BMP_pressure;BME280_temperature;BME280_humidity;BME280_pressure;Samples;Min_cycle;Max_cycle;Signal;HPM_P1;HPM_P2
2022/09/06 00:01:31;;;;;;;;;;;;;;;19.76;77.15;101514.06;5117355;28;20328;-35
2022/09/06 00:03:56;;;;;;;;;;;;;;;19.70;73.99;101534.34;5116944;28;19920;-35
2022/09/06 00:06:21;;;;;;;;;;;;;;;19.74;72.95;101546.44;5117222;28;19973;-35
2022/09/06 00:08:47;;;;;;;;;;;;;;;19.77;70.56;101548.63;5116924;28;19919;-35
2022/09/06 00:11:13;;;;;;;;;;;;;;;19.82;71.19;101574.44;5116952;28;19912;-35
2022/09/06 00:13:38;;;;;;;;;;;;;;;19.88;71.67;101592.53;5117478;28;19912;-35
2022/09/06 00:16:08;;;;;;;;;;;;;;;19.87;77.49;101632.88;5116544;28;20279;-35
2022/09/06 00:18:33;;;;;;;;;;;;;;;19.85;75.26;101628.75;5117401;28;19954;-35
2022/09/06 00:20:59;;;;;;;;;;;;;;;19.70;81.85;101613.91;5117341;28;20347;-35
2022/09/06 00:23:24;;;;;;;;;;;;;;;19.63;81.43;101692.94;5116501;28;19957;-35
2022/09/06 00:25:49;;;;;;;;;;;;;;;19.59;79.64;101696.47;5115619;28;20073;-35
2022/09/06 00:28:14;;;;;;;;;;;;;;;19.56;78.66;101714.28;5116578;28;19911;-35
2022/09/06 00:30:40;;;;;;;;;;;;;;;19.51;82.15;101714.25;5116622;28;19965;-34
2022/09/06 00:33:05;;;;;;;;;;;;;;;19.47;82.21;101718.63;5116856;28;19919;-35
2022/09/06 00:35:30;;;;;;;;;;;;;;;19.39;81.46;101725.47;5115314;28;20366;-34
2022/09/06 00:37:59;;;;;;;;;;;;;;;19.39;79.35;101713.69;5116848;28;19965;-34
2022/09/06 00:40:25;;;;;;;;;;;;;;;19.42;78.01;101713.13;5116525;28;19911;-35
2022/09/06 00:42:51;;;;;;;;;;;;;;;19.46;80.98;101712.31;5116689;28;19913;-35
2022/09/06 00:45:16;;;;;;;;;;;;;;;19.44;78.55;101714.53;5116526;28;20374;-34
2022/09/06 00:47:42;;;;;;;;;;;;;;;19.48;78.04;101712.06;5116724;27;20359;-35
2022/09/06 00:50:09;;;;;;;;;;;;;;;19.49;79.97;101708.22;5116257;28;19916;-35
2022/09/06 00:52:35;;;;;;;;;;;;;;;19.46;78.02;101706.84;5116696;28;19911;-34
2022/09/06 00:55:00;;;;;;;;;;;;;;;19.44;77.20;101700.00;5116219;28;19938;-35
2022/09/06 00:57:27;;;;;;;;;;;;;;;19.44;79.72;101694.50;5116922;28;19912;-35
2022/09/06 00:59:54;;;;;;;;;;;;;;;19.35;83.46;101679.66;5116015;28;19990;-35
2022/09/06 01:02:19;;;;;;;;;;;;;;;19.28;77.82;101679.94;5116369;27;19920;-35
2022/09/06 01:04:46;;;;;;;;;;;;;;;19.32;76.92;101675.53;5116117;28;19936;-35
2022/09/06 01:07:18;;;;;;;;;;;;;;;19.37;83.34;101669.25;5116546;28;19919;-35
2022/09/06 01:09:43;;;;;;;;;;;;;;;19.20;84.36;101653.84;5115487;28;19916;-35
2022/09/06 01:12:34;;;;;;;;;;;;;;;19.17;85.91;101661.78;5115739;28;19951;-34
2022/09/06 01:15:08;;;;;;;;;;;;;;;19.14;83.22;101660.41;5032927;28;19969;-35
2022/09/06 01:17:42;;;;;;;;;;;;;;;19.03;86.77;101650.47;5033277;28;20356;-35
2022/09/06 01:20:31;;;;;;;;;;;;;;;19.02;82.25;101652.41;5033260;28;19928;-34
2022/09/06 01:22:59;;;;;;;;;;;;;;;19.01;84.70;101645.28;5033499;28;20324;-34
2022/09/06 01:25:32;;;;;;;;;;;;;;;19.02;83.80;101633.22;5032759;28;20011;-34
2022/09/06 01:27:57;;;;;;;;;;;;;;;19.05;83.34;101631.84;5032506;28;19924;-34
2022/09/06 01:30:23;;;;;;;;;;;;;;;19.07;82.72;101620.63;5033016;28;19913;-34
2022/09/06 01:32:48;;;;;;;;;;;;;;;18.94;91.19;101602.78;5033157;28;19976;-35
2022/09/06 01:35:33;;;;;;;;;;;;;;;18.81;89.05;101579.44;5032393;28;20381;-35
2022/09/06 01:37:59;;;;;;;;;;;;;;;18.80;87.94;101544.09;5033003;28;19920;-34
2022/09/06 01:40:26;;;;;;;;;;;;;;;18.78;89.89;101516.94;5032570;28;20072;-35
2022/09/06 01:42:52;;;;;;;;;;;;;;;18.72;89.54;101496.09;5016297;28;19913;-34
2022/09/06 01:45:19;;;;;;;;;;;;;;;18.66;90.62;101480.72;5032341;28;20012;-35
2022/09/06 01:47:53;;;;;;;;;;;;;;;18.63;90.96;101470.28;5032545;28;19913;-34
2022/09/06 01:50:24;;;;;;;;;;;;;;;18.56;92.81;101475.22;5032338;28;20333;-34
2022/09/06 01:53:09;;;;;;;;;;;;;;;18.57;91.80;101476.84;5109411;28;19912;-35
2022/09/06 01:55:38;;;;;;;;;;;;;;;18.57;91.80;101471.38;5115444;28;19912;-34
2022/09/06 01:58:14;;;;;;;;;;;;;;;18.60;88.07;101466.19;5114800;28;19922;-34
2022/09/06 02:00:47;;;;;;;;;;;;;;;18.63;89.22;101470.28;5115180;28;20328;-35
2022/09/06 02:03:12;;;;;;;;;;;;;;;18.66;88.42;101465.09;5114596;28;20321;-34
2022/09/06 02:05:40;;;;;;;;;;;;;;;18.69;88.39;101470.09;5114008;28;19916;-34
2022/09/06 02:08:08;;;;;;;;;;;;;;;18.71;87.40;101467.88;5114654;28;20002;-34
2022/09/06 02:10:42;;;;;;;;;;;;;;;18.75;87.60;101466.25;5114742;28;20359;-35
2022/09/06 02:13:09;;;;;;;;;;;;;;;18.81;86.43;101471.75;5114989;28;20260;-35
2022/09/06 02:15:41;;;;;;;;;;;;;;;18.84;85.27;101465.72;5114825;28;19912;-35
2022/09/06 02:18:12;;;;;;;;;;;;;;;18.89;84.52;101468.47;5114622;28;19918;-35
2022/09/06 02:20:41;;;;;;;;;;;;;;;18.90;87.23;101456.44;5114150;28;19915;-34
2022/09/06 02:23:07;;;;;;;;;;;;;;;18.90;84.48;101453.69;5115242;28;19911;-34
2022/09/06 02:25:35;;;;;;;;;;;;;;;18.92;84.42;101463.25;5114119;27;19912;-35
2022/09/06 02:28:01;;;;;;;;;;;;;;;18.94;84.42;101482.19;5114393;28;20315;-34
2022/09/06 02:30:26;;;;;;;;;;;;;;;18.96;82.86;101494.50;5114326;28;19918;-34
2022/09/06 02:32:56;;;;;;;;;;;;;;;19.01;84.59;101526.59;5114013;28;19919;-35
2022/09/06 02:35:21;;;;;;;;;;;;;;;18.98;86.75;101511.53;5114257;28;20283;-34
2022/09/06 02:37:47;;;;;;;;;;;;;;;18.86;88.07;101505.47;5114967;28;19937;-34
2022/09/06 02:40:12;;;;;;;;;;;;;;;18.81;85.75;101510.09;5113828;28;20010;-34
2022/09/06 02:42:38;;;;;;;;;;;;;;;18.84;84.18;101506.81;5114446;28;19965;-35
2022/09/06 02:45:04;;;;;;;;;;;;;;;18.85;83.86;101500.25;5114154;28;19959;-34
2022/09/06 02:47:29;;;;;;;;;;;;;;;18.87;83.08;101498.06;5113774;28;19912;-34
2022/09/06 02:49:54;;;;;;;;;;;;;;;18.86;82.67;101488.19;5114380;28;20007;-35
2022/09/06 02:52:19;;;;;;;;;;;;;;;18.85;82.67;101483.81;5114002;28;19912;-34
2022/09/06 02:54:45;;;;;;;;;;;;;;;18.82;82.43;101487.91;5113929;28;19912;-34
2022/09/06 02:57:10;;;;;;;;;;;;;;;18.80;82.15;101483.81;5114250;28;19912;-34
2022/09/06 02:59:35;;;;;;;;;;;;;;;18.78;81.68;101489.53;5113876;28;20252;-34
2022/09/06 03:02:00;;;;;;;;;;;;;;;18.76;81.85;101489.00;5114315;28;19968;-34
2022/09/06 03:04:26;;;;;;;;;;;;;;;18.73;85.50;101486.78;5113805;28;19912;-34
2022/09/06 03:06:51;;;;;;;;;;;;;;;18.66;82.76;101487.03;5114266;28;20068;-34
2022/09/06 03:09:16;;;;;;;;;;;;;;;18.63;84.87;101482.06;5113733;28;19919;-34
2022/09/06 03:11:41;;;;;;;;;;;;;;;18.56;85.16;101478.78;5114319;28;19916;-34
2022/09/06 03:14:06;;;;;;;;;;;;;;;18.52;83.79;101475.75;5113362;28;19916;-34
2022/09/06 03:16:32;;;;;;;;;;;;;;;18.54;83.04;101478.19;5115512;28;19911;-34
2022/09/06 03:18:57;;;;;;;;;;;;;;;18.52;84.86;101477.66;5118609;28;19916;-35
2022/09/06 03:21:22;;;;;;;;;;;;;;;18.49;83.43;101473.53;5118219;28;19911;-34
2022/09/06 03:23:48;;;;;;;;;;;;;;;18.52;83.19;101480.41;5118057;28;19912;-34
2022/09/06 03:26:13;;;;;;;;;;;;;;;18.54;82.64;101472.72;5118146;28;19934;-34
2022/09/06 03:28:38;;;;;;;;;;;;;;;18.56;82.54;101481.50;5116347;28;19916;-34
2022/09/06 03:31:04;;;;;;;;;;;;;;;18.56;82.08;101476.03;5118046;28;19942;-34
2022/09/06 03:33:29;;;;;;;;;;;;;;;18.55;82.40;101482.59;5117721;28;20018;-34
2022/09/06 03:35:56;;;;;;;;;;;;;;;18.53;81.65;101493.81;5117640;28;20021;-35
2022/09/06 03:38:22;;;;;;;;;;;;;;;18.53;81.74;101493.00;5117904;28;20268;-34
2022/09/06 03:40:47;;;;;;;;;;;;;;;18.52;81.39;101489.44;5117605;28;20007;-34
2022/09/06 03:43:14;;;;;;;;;;;;;;;18.52;82.07;101491.34;5117875;28;19911;-34
2022/09/06 03:45:39;;;;;;;;;;;;;;;18.48;81.49;101490.25;5117395;28;19919;-34
2022/09/06 03:48:04;;;;;;;;;;;;;;;18.47;81.65;101491.34;5117382;28;19911;-34
2022/09/06 03:50:30;;;;;;;;;;;;;;;18.44;81.08;101487.19;5116370;28;19927;-34
2022/09/06 03:52:55;;;;;;;;;;;;;;;18.43;81.70;101492.97;5117413;28;20283;-34
2022/09/06 03:55:20;;;;;;;;;;;;;;;18.41;81.41;101492.41;5117249;28;20283;-34
2022/09/06 03:57:45;;;;;;;;;;;;;;;18.35;81.66;101496.19;5117004;28;19973;-35
2022/09/06 04:00:11;;;;;;;;;;;;;;;18.32;82.00;101496.75;5117176;28;19911;-34
2022/09/06 04:02:36;;;;;;;;;;;;;;;18.30;82.01;101498.91;5118233;28;19969;-35
2022/09/06 04:05:01;;;;;;;;;;;;;;;18.27;81.84;101495.63;5116806;28;19947;-34
2022/09/06 04:07:26;;;;;;;;;;;;;;;18.25;81.67;101499.72;5116663;28;19955;-35
2022/09/06 04:09:51;;;;;;;;;;;;;;;18.23;81.44;101499.16;5117792;28;20002;-34
2022/09/06 04:12:17;;;;;;;;;;;;;;;18.22;81.72;101503.00;5117242;28;19916;-34
2022/09/06 04:14:42;;;;;;;;;;;;;;;18.18;82.02;101486.28;5117051;28;19915;-34
2022/09/06 04:17:07;;;;;;;;;;;;;;;18.14;81.73;101498.84;5117172;28;20359;-34
2022/09/06 04:19:33;;;;;;;;;;;;;;;18.10;82.14;101497.72;5117270;28;19911;-34
2022/09/06 04:21:58;;;;;;;;;;;;;;;18.08;82.86;101496.34;5117041;28;19911;-34
2022/09/06 04:24:23;;;;;;;;;;;;;;;18.03;83.47;101499.88;5117457;28;20244;-35
2022/09/06 04:26:48;;;;;;;;;;;;;;;17.96;84.09;101504.78;5117163;28;19912;-34
2022/09/06 04:29:13;;;;;;;;;;;;;;;17.91;83.51;101513.78;5115535;28;20335;-34
2022/09/06 04:31:39;;;;;;;;;;;;;;;17.85;83.34;101508.50;5116574;28;19912;-34
2022/09/06 04:34:04;;;;;;;;;;;;;;;17.82;83.90;101515.34;5116515;28;19962;-34
2022/09/06 04:36:29;;;;;;;;;;;;;;;17.79;83.40;101521.34;5117319;28;19912;-34
2022/09/06 04:38:54;;;;;;;;;;;;;;;17.80;83.26;101516.69;5116439;28;19911;-35
2022/09/06 04:41:20;;;;;;;;;;;;;;;17.79;83.19;101520.53;5117974;28;19960;-35
2022/09/06 04:43:45;;;;;;;;;;;;;;;17.78;82.95;101519.69;5116535;28;19919;-35
2022/09/06 04:46:21;;;;;;;;;;;;;;;17.79;82.72;101520.53;5116231;28;19912;-34
2022/09/06 04:48:47;;;;;;;;;;;;;;;17.76;83.64;101521.84;5116451;28;20336;-35
2022/09/06 04:51:12;;;;;;;;;;;;;;;17.65;83.36;101509.16;5116842;28;19919;-35
2022/09/06 04:53:37;;;;;;;;;;;;;;;17.69;84.77;101521.25;5116055;28;19912;-36
2022/09/06 04:56:03;;;;;;;;;;;;;;;17.65;83.41;101515.47;5116410;28;19915;-35
2022/09/06 04:58:28;;;;;;;;;;;;;;;17.64;84.33;101513.00;5117295;28;19928;-35
2022/09/06 05:00:53;;;;;;;;;;;;;;;17.60;83.25;101515.41;5116237;28;19961;-35
2022/09/06 05:03:18;;;;;;;;;;;;;;;17.59;83.08;101516.50;5116342;28;19994;-35
2022/09/06 05:05:44;;;;;;;;;;;;;;;17.58;83.39;101520.34;5114587;28;19912;-34
2022/09/06 05:08:09;;;;;;;;;;;;;;;17.54;83.61;101518.38;5116241;28;19912;-35
2022/09/06 05:10:34;;;;;;;;;;;;;;;17.52;83.61;101521.41;5116168;28;19937;-34
2022/09/06 05:12:59;;;;;;;;;;;;;;;17.51;83.40;101520.53;5115897;28;19966;-34
2022/09/06 05:15:25;;;;;;;;;;;;;;;17.51;83.84;101519.72;5115872;28;20308;-34
2022/09/06 05:17:50;;;;;;;;;;;;;;;17.50;83.63;101518.91;5116518;28;19912;-34
2022/09/06 05:20:15;;;;;;;;;;;;;;;17.50;83.62;101518.06;5115965;28;19919;-34
2022/09/06 05:22:41;;;;;;;;;;;;;;;17.49;83.49;101517.25;5115981;28;19911;-35
2022/09/06 05:25:09;;;;;;;;;;;;;;;17.49;83.82;101510.97;5115867;28;19912;-34
2022/09/06 05:27:34;;;;;;;;;;;;;;;17.51;83.80;101517.81;5114163;28;19919;-35
2022/09/06 05:30:00;;;;;;;;;;;;;;;17.53;83.26;101525.78;5115804;28;19912;-35
2022/09/06 05:32:25;;;;;;;;;;;;;;;17.56;83.37;101527.97;5115990;28;20267;-34
2022/09/06 05:34:50;;;;;;;;;;;;;;;17.60;83.77;101529.09;5115978;28;19950;-34
2022/09/06 05:37:15;;;;;;;;;;;;;;;17.60;82.98;101534.56;5116001;28;19912;-34
2022/09/06 05:39:40;;;;;;;;;;;;;;;17.65;82.95;101525.56;5113941;28;20460;-34
2022/09/06 05:42:06;;;;;;;;;;;;;;;17.64;83.41;101519.28;5115065;28;19921;-34
2022/09/06 05:44:32;;;;;;;;;;;;;;;17.73;82.70;101533.34;5115216;28;19930;-34
2022/09/06 05:46:57;;;;;;;;;;;;;;;17.80;82.97;101533.09;5115485;28;19920;-34
2022/09/06 05:49:23;;;;;;;;;;;;;;;17.82;82.79;101533.69;5115125;28;20344;-34
2022/09/06 05:51:51;;;;;;;;;;;;;;;17.88;83.28;101538.91;5115549;28;20435;-34
2022/09/06 05:54:16;;;;;;;;;;;;;;;17.92;83.12;101540.03;5115132;28;19918;-35
2022/09/06 05:56:41;;;;;;;;;;;;;;;17.95;83.61;101538.69;5115751;28;19912;-34
2022/09/06 05:59:06;;;;;;;;;;;;;;;18.00;82.73;101533.25;5114689;28;19927;-34
2022/09/06 06:01:32;;;;;;;;;;;;;;;18.04;83.28;101539.00;5115839;28;19916;-35
2022/09/06 06:03:59;;;;;;;;;;;;;;;18.07;82.60;101533.84;5113588;28;19915;-34
2022/09/06 06:06:25;;;;;;;;;;;;;;;18.11;83.08;101540.44;5114952;28;19919;-34
2022/09/06 06:08:50;;;;;;;;;;;;;;;18.14;82.56;101534.41;5114562;28;20325;-34
2022/09/06 06:11:16;;;;;;;;;;;;;;;18.19;82.39;101534.44;5114879;28;19911;-34
2022/09/06 06:13:42;;;;;;;;;;;;;;;18.23;82.46;101524.63;5114513;28;19995;-34
2022/09/06 06:16:08;;;;;;;;;;;;;;;18.27;82.73;101533.97;5115271;28;19916;-34
2022/09/06 06:18:33;;;;;;;;;;;;;;;18.32;82.33;101532.34;5114904;28;20051;-35
2022/09/06 06:21:12;;;;;;;;;;;;;;;18.33;83.21;101532.06;5114812;28;19918;-34
2022/09/06 06:23:38;;;;;;;;;;;;;;;18.38;82.67;101534.00;5114828;27;19999;-34
2022/09/06 06:26:04;;;;;;;;;;;;;;;18.38;83.32;101534.81;5114896;28;20414;-34
2022/09/06 06:28:29;;;;;;;;;;;;;;;18.40;82.96;101538.16;5114488;28;19915;-34
2022/09/06 06:30:55;;;;;;;;;;;;;;;18.44;82.86;101535.66;5114447;28;19918;-34
2022/09/06 06:33:20;;;;;;;;;;;;;;;18.47;82.60;101530.50;5113881;28;19911;-35
2022/09/06 06:36:00;;;;;;;;;;;;;;;18.52;82.28;101536.00;5114475;28;20347;-34
2022/09/06 06:38:33;;;;;;;;;;;;;;;18.55;82.88;101531.91;5115062;28;19911;-34
2022/09/06 06:40:59;;;;;;;;;;;;;;;18.59;82.95;101519.31;5114633;28;19912;-35
2022/09/06 06:43:24;;;;;;;;;;;;;;;18.60;85.89;101515.50;5113367;28;19964;-34
2022/09/06 06:45:49;;;;;;;;;;;;;;;18.58;89.15;101519.56;5114318;28;19922;-34
2022/09/06 06:48:15;;;;;;;;;;;;;;;18.55;86.62;101520.94;5114529;28;19931;-34
2022/09/06 06:50:40;;;;;;;;;;;;;;;18.59;85.10;101524.78;5113755;28;20059;-34
2022/09/06 06:53:05;;;;;;;;;;;;;;;18.66;84.84;101522.63;5114181;28;19957;-34
2022/09/06 06:55:30;;;;;;;;;;;;;;;18.71;84.49;101525.41;5114883;28;19919;-34
2022/09/06 06:57:58;;;;;;;;;;;;;;;18.76;84.84;101519.94;5113796;28;19937;-34
2022/09/06 07:00:23;;;;;;;;;;;;;;;18.80;85.52;101519.44;5114366;28;19918;-34
2022/09/06 07:02:49;;;;;;;;;;;;;;;18.84;84.68;101520.50;5113917;28;19916;-34
2022/09/06 07:05:14;;;;;;;;;;;;;;;18.88;84.87;101525.19;5114580;28;19911;-34
2022/09/06 07:07:39;;;;;;;;;;;;;;;18.91;84.53;101521.91;5113965;28;19930;-34
2022/09/06 07:10:05;;;;;;;;;;;;;;;18.98;85.32;101516.16;5114041;28;19912;-34
2022/09/06 07:12:30;;;;;;;;;;;;;;;19.03;86.76;101524.38;5114043;28;19962;-34
2022/09/06 07:14:55;;;;;;;;;;;;;;;19.04;86.29;101515.91;5114472;28;20007;-34
2022/09/06 07:17:20;;;;;;;;;;;;;;;19.08;85.23;101507.97;5114219;28;20305;-34
2022/09/06 07:19:45;;;;;;;;;;;;;;;19.15;85.29;101502.22;5113716;28;19964;-34
2022/09/06 07:22:11;;;;;;;;;;;;;;;19.16;85.96;101504.69;5113740;28;20248;-34
2022/09/06 07:24:36;;;;;;;;;;;;;;;19.17;85.72;101509.06;5113538;28;19912;-34
2022/09/06 07:27:01;;;;;;;;;;;;;;;19.20;85.88;101504.97;5114179;28;19912;-34
2022/09/06 07:29:26;;;;;;;;;;;;;;;19.26;85.86;101506.63;5113871;28;19916;-34
2022/09/06 07:31:55;;;;;;;;;;;;;;;19.28;85.30;101509.94;5113700;28;19918;-35
2022/09/06 07:34:20;;;;;;;;;;;;;;;19.32;85.27;101510.19;5113629;28;19919;-35
2022/09/06 07:36:46;;;;;;;;;;;;;;;19.38;85.31;101509.94;5114513;28;19911;-35
2022/09/06 07:39:11;;;;;;;;;;;;;;;19.45;84.58;101507.72;5113308;28;19919;-35
2022/09/06 07:41:36;;;;;;;;;;;;;;;19.52;86.06;101512.91;5113896;28;19960;-35
2022/09/06 07:44:02;;;;;;;;;;;;;;;19.56;84.95;101525.00;5113606;28;19912;-35
2022/09/06 07:46:27;;;;;;;;;;;;;;;19.60;85.08;101506.91;5114280;28;19922;-35
2022/09/06 07:48:52;;;;;;;;;;;;;;;19.68;85.24;101506.38;5113603;28;19915;-34
2022/09/06 07:51:18;;;;;;;;;;;;;;;19.74;84.39;101513.50;5113540;28;20279;-34
2022/09/06 07:53:49;;;;;;;;;;;;;;;19.82;84.50;101505.81;5113334;28;19922;-34
2022/09/06 07:56:14;;;;;;;;;;;;;;;19.94;84.80;101511.81;5113373;28;20355;-34
2022/09/06 07:58:40;;;;;;;;;;;;;;;20.06;83.82;101509.63;5113752;28;20022;-35
2022/09/06 08:01:19;;;;;;;;;;;;;;;20.16;84.66;101497.78;5113496;28;19951;-35
2022/09/06 08:03:44;;;;;;;;;;;;;;;20.24;83.78;101497.19;5115740;28;19965;-35
2022/09/06 08:06:10;;;;;;;;;;;;;;;20.32;84.11;101491.94;5116772;28;19912;-34
2022/09/06 08:08:35;;;;;;;;;;;;;;;20.40;83.06;101492.44;5116756;28;19911;-34
2022/09/06 08:11:01;;;;;;;;;;;;;;;20.47;82.56;101498.50;5117027;28;19972;-36
2022/09/06 08:13:26;;;;;;;;;;;;;;;20.56;81.50;101489.41;5116996;28;19964;-34
2022/09/06 08:15:58;;;;;;;;;;;;;;;20.67;81.64;101486.59;5116893;28;19919;-35
2022/09/06 08:18:24;;;;;;;;;;;;;;;20.76;80.65;101491.22;5117610;28;19975;-35
2022/09/06 08:20:49;;;;;;;;;;;;;;;20.81;79.71;101485.69;5117193;28;20248;-34
2022/09/06 08:23:14;;;;;;;;;;;;;;;20.92;80.06;101483.69;5116719;28;19949;-34
2022/09/06 08:25:39;;;;;;;;;;;;;;;21.06;79.73;101481.13;5116641;28;20007;-35
2022/09/06 08:28:04;;;;;;;;;;;;;;;21.17;79.58;101490.13;5117337;28;19911;-35
2022/09/06 08:30:30;;;;;;;;;;;;;;;21.25;79.55;101487.59;5116345;28;20227;-35
2022/09/06 08:32:55;;;;;;;;;;;;;;;21.39;79.70;101481.47;5117005;28;19922;-34
2022/09/06 08:35:20;;;;;;;;;;;;;;;21.52;78.24;101480.78;5116492;28;19912;-35
2022/09/06 08:37:46;;;;;;;;;;;;;;;21.67;77.80;101479.81;5116680;28;19912;-34
2022/09/06 08:40:12;;;;;;;;;;;;;;;21.81;78.04;101484.38;5116415;28;19911;-34
2022/09/06 08:42:38;;;;;;;;;;;;;;;21.94;75.42;101490.28;5116650;28;20282;-34
2022/09/06 08:45:08;;;;;;;;;;;;;;;22.01;74.61;101488.84;5116478;28;20002;-35
2022/09/06 08:47:33;;;;;;;;;;;;;;;22.12;74.78;101481.31;5116465;28;19919;-35
2022/09/06 08:50:04;;;;;;;;;;;;;;;22.18;74.12;101471.03;5115885;28;19912;-35
2022/09/06 08:52:32;;;;;;;;;;;;;;;22.27;74.77;101480.31;5116228;28;19919;-34
2022/09/06 08:54:57;;;;;;;;;;;;;;;22.38;73.42;101475.47;5116087;28;19915;-35
2022/09/06 08:57:41;;;;;;;;;;;;;;;22.38;71.54;101470.78;5116808;28;19911;-35
2022/09/06 09:00:10;;;;;;;;;;;;;;;22.52;72.27;101477.22;5115672;28;19918;-33
2022/09/06 09:02:58;;;;;;;;;;;;;;;22.57;72.36;101474.38;5116987;28;19961;-34
2022/09/06 09:05:27;;;;;;;;;;;;;;;22.67;70.52;101484.47;5033604;28;19924;-34
2022/09/06 09:08:01;;;;;;;;;;;;;;;22.79;71.14;101481.25;5033381;28;19920;-36
2022/09/06 09:10:26;;;;;;;;;;;;;;;;;;5016531;28;19913;-35
2022/09/06 09:12:51;;;;;;;;;;;;;;;23.01;68.25;101475.19;5033127;28;19920;-34
2022/09/06 09:15:18;;;;;;;;;;;;;;;23.09;69.07;101477.25;5032492;28;19932;-34
2022/09/06 09:17:44;;;;;;;;;;;;;;;23.16;67.77;101465.84;5033487;28;19967;-34
2022/09/06 09:20:09;;;;;;;;;;;;;;;23.20;66.80;101470.47;5032811;28;20485;-34
2022/09/06 09:22:35;;;;;;;;;;;;;;;23.27;67.14;101461.78;5032620;28;19913;-34
2022/09/06 09:25:01;;;;;;;;;;;;;;;23.36;67.57;101469.06;5032835;28;19913;-34
2022/09/06 09:27:27;;;;;;;;;;;;;;;23.46;68.22;101467.25;5016881;28;20281;-34
2022/09/06 09:29:52;;;;;;;;;;;;;;;23.55;67.25;101459.94;5032643;28;20388;-34
2022/09/06 09:32:30;;;;;;;;;;;;;;;23.63;67.25;101450.97;5032573;28;20004;-34
2022/09/06 09:35:14;;;;;;;;;;;;;;;23.71;66.87;101457.72;5032423;28;19917;-34
2022/09/06 09:37:39;;;;;;;;;;;;;;;23.82;67.14;101471.06;5032877;28;19913;-34
2022/09/06 09:40:05;;;;;;;;;;;;;;;23.95;67.19;101482.41;5032901;28;20288;-34
2022/09/06 09:42:35;;;;;;;;;;;;;;;24.01;65.85;101483.94;5078704;28;19919;-35
2022/09/06 09:45:01;;;;;;;;;;;;;;;24.03;64.62;101476.19;5115139;27;19912;-35
2022/09/06 09:47:31;;;;;;;;;;;;;;;24.08;65.19;101473.31;5114712;28;19911;-35
2022/09/06 09:49:56;;;;;;;;;;;;;;;24.19;65.96;101465.63;5114686;28;19916;-35
2022/09/06 09:52:29;;;;;;;;;;;;;;;24.30;64.87;101467.91;5114699;28;19911;-35
2022/09/06 09:54:56;;;;;;;;;;;;;;;24.39;65.60;101460.53;5114926;28;19916;-35
2022/09/06 09:57:22;;;;;;;;;;;;;;;24.47;64.49;101463.69;5115295;28;19919;-35
2022/09/06 09:59:56;;;;;;;;;;;;;;;24.52;64.26;101458.88;5114630;28;19995;-35
2022/09/06 10:02:34;;;;;;;;;;;;;;;24.61;64.55;101464.50;5115876;28;20305;-35
2022/09/06 10:05:05;;;;;;;;;;;;;;;24.66;63.86;101458.84;5115611;28;19911;-36
2022/09/06 10:07:31;;;;;;;;;;;;;;;24.76;64.41;101455.03;5115098;28;19919;-35
2022/09/06 10:09:58;;;;;;;;;;;;;;;24.82;63.81;101460.13;5114448;28;19916;-35
2022/09/06 10:12:34;;;;;;;;;;;;;;;24.88;63.32;101464.41;5114997;28;19911;-35
2022/09/06 10:14:59;;;;;;;;;;;;;;;24.97;63.21;101456.19;5114688;28;19916;-35
2022/09/06 10:17:29;;;;;;;;;;;;;;;25.07;62.86;101457.91;5114923;28;20327;-35
2022/09/06 10:19:54;;;;;;;;;;;;;;;25.19;63.26;101468.44;5114530;28;20380;-35
2022/09/06 10:22:19;;;;;;;;;;;;;;;25.28;63.62;101467.38;5115102;27;19947;-35
2022/09/06 10:25:04;;;;;;;;;;;;;;;25.36;62.81;101483.19;5114108;28;19999;-35
2022/09/06 10:27:29;;;;;;;;;;;;;;;25.46;63.04;101478.53;5113954;28;19918;-35
2022/09/06 10:30:04;;;;;;;;;;;;;;;25.56;61.99;101475.50;5114318;28;19912;-35
2022/09/06 10:32:35;;;;;;;;;;;;;;;25.64;62.33;101481.09;5114596;28;20279;-35
2022/09/06 10:35:02;;;;;;;;;;;;;;;25.66;60.31;101484.34;5113742;28;20248;-35
2022/09/06 10:37:45;;;;;;;;;;;;;;;25.66;60.36;101476.03;5114925;28;20024;-35
2022/09/06 10:40:15;;;;;;;;;;;;;;;25.67;59.71;101480.47;5114501;28;19939;-35
2022/09/06 10:42:41;;;;;;;;;;;;;;;25.70;60.01;101476.22;5114167;28;19919;-35
2022/09/06 10:45:06;;;;;;;;;;;;;;;25.74;59.15;101460.63;5114140;28;20307;-35
2022/09/06 10:47:36;;;;;;;;;;;;;;;25.79;59.92;101474.34;5114813;28;19935;-36
2022/09/06 10:50:03;;;;;;;;;;;;;;;25.83;60.07;101467.03;5114467;28;20020;-35
2022/09/06 10:52:35;;;;;;;;;;;;;;;25.92;60.08;101467.09;5114145;28;19922;-35
2022/09/06 10:55:03;;;;;;;;;;;;;;;26.02;59.95;101461.25;5113845;28;20363;-35
2022/09/06 10:57:44;;;;;;;;;;;;;;;26.08;59.95;101461.94;5113817;28;19912;-35
2022/09/06 11:00:14;;;;;;;;;;;;;;;26.08;59.36;101464.69;5113699;28;19912;-35
2022/09/06 11:02:46;;;;;;;;;;;;;;;25.84;59.50;101465.91;5114631;28;20004;-35
2022/09/06 11:05:19;;;;;;;;;;;;;;;25.65;59.85;101459.75;5113987;28;19918;-35
2022/09/06 11:08:11;;;;;;;;;;;;;;;25.55;60.43;101463.59;5114248;28;19921;-35
2022/09/06 11:10:39;;;;;;;;;;;;;;;25.59;61.01;101466.56;5031014;28;19919;-35
2022/09/06 11:13:13;;;;;;;;;;;;;;;25.85;60.82;101462.00;5030915;28;20003;-35
2022/09/06 11:15:59;;;;;;;;;;;;;;;26.09;59.72;101469.09;5014615;28;19975;-35
2022/09/06 11:18:24;;;;;;;;;;;;;;;26.27;60.57;101478.28;5017904;28;19917;-36
2022/09/06 11:21:02;;;;;;;;;;;;;;;26.34;59.38;101479.44;5030947;28;20238;-35
2022/09/06 11:23:27;;;;;;;;;;;;;;;26.39;59.57;101478.47;5030875;28;20003;-36
2022/09/06 11:25:52;;;;;;;;;;;;;;;26.44;60.02;101484.72;5031137;28;19956;-35
2022/09/06 11:28:28;;;;;;;;;;;;;;;26.53;58.92;101493.06;5031516;28;19913;-35
2022/09/06 11:30:55;;;;;;;;;;;;;;;26.66;59.01;101485.75;5031159;28;19919;-35
2022/09/06 11:33:25;;;;;;;;;;;;;;;26.82;58.42;101488.84;5031565;28;20004;-35
2022/09/06 11:35:51;;;;;;;;;;;;;;;26.93;57.20;101490.97;5030940;28;20428;-35
2022/09/06 11:38:16;;;;;;;;;;;;;;;26.98;56.94;101490.00;5034006;28;20015;-35
2022/09/06 11:40:43;;;;;;;;;;;;;;;27.04;56.92;101487.91;5034643;28;19948;-35
2022/09/06 11:43:27;;;;;;;;;;;;;;;27.15;56.62;101490.03;5034806;28;19920;-36
2022/09/06 11:45:52;;;;;;;;;;;;;;;27.27;56.32;101475.47;5035532;28;19916;-35
2022/09/06 11:48:25;;;;;;;;;;;;;;;27.31;54.48;101481.19;5107283;28;20416;-35
2022/09/06 11:50:53;;;;;;;;;;;;;;;27.34;54.35;101478.56;5117670;28;19918;-35
2022/09/06 11:53:19;;;;;;;;;;;;;;;27.41;54.77;101481.66;5117998;28;20030;-35
2022/09/06 11:55:49;;;;;;;;;;;;;;;27.44;53.98;101475.44;5117738;28;19957;-36
2022/09/06 11:58:15;;;;;;;;;;;;;;;27.52;54.64;101472.97;5117651;28;19959;-35
2022/09/06 12:00:40;;;;;;;;;;;;;;;27.66;54.21;101473.59;5116827;28;19911;-35
2022/09/06 12:03:06;;;;;;;;;;;;;;;27.79;52.02;101469.00;5117292;28;19912;-35
2022/09/06 12:05:31;;;;;;;;;;;;;;;27.84;52.18;101461.31;5117088;28;19943;-35
2022/09/06 12:08:22;;;;;;;;;;;;;;;27.86;52.71;101464.56;5116700;28;19970;-35
2022/09/06 12:10:49;;;;;;;;;;;;;;;27.96;52.84;101471.72;5117037;28;19958;-35
2022/09/06 12:13:33;;;;;;;;;;;;;;;27.94;50.40;101457.34;5117550;28;19911;-35
2022/09/06 12:15:59;;;;;;;;;;;;;;;27.85;51.17;101460.16;5117587;28;19911;-35
2022/09/06 12:18:43;;;;;;;;;;;;;;;27.90;50.83;101459.97;5116867;28;19911;-35
2022/09/06 12:21:28;;;;;;;;;;;;;;;27.92;47.87;101459.66;5116674;28;19912;-35
2022/09/06 12:23:53;;;;;;;;;;;;;;;28.10;48.85;101446.47;5116634;28;19951;-34
2022/09/06 12:26:39;;;;;;;;;;;;;;;28.22;48.73;101447.38;5116455;28;19919;-35
2022/09/06 12:29:09;;;;;;;;;;;;;;;28.32;46.66;101448.16;5116704;28;20321;-35
2022/09/06 12:31:39;;;;;;;;;;;;;;;28.35;49.10;101451.09;5116790;28;19912;-35
2022/09/06 12:34:06;;;;;;;;;;;;;;;28.44;47.44;101451.84;5117158;28;19964;-35
2022/09/06 12:36:32;;;;;;;;;;;;;;;28.56;46.16;101453.09;5116946;28;19911;-35
2022/09/06 12:38:59;;;;;;;;;;;;;;;28.65;47.73;101456.63;5116764;28;19918;-35
2022/09/06 12:41:26;;;;;;;;;;;;;;;28.59;45.71;101444.88;5116201;28;19919;-35